2MI9 weather

Capen Airport
Mecosta, Michigan, United States

Public forecast

Using degrees Fahrenheit for public forecast. Weather courtesy of forecast.io.

METAR (pilot weather report)

Closest report is Roben Hood Airport, 10.0 nm (18.6 km) NW. Retrieved 2019/09/19 05:35 UTC (0 seconds ago):

KRQB 190535Z AUTO 16003KT 10SM CLR 15/13 A3015 RMK AO2 T01540133

TAF (pilot weather forecast)

Forecast is more than 12 hours old.

Closest forecast is Gerald R. Ford International Airport, 45.5 nm (84.3 km) SSW. Retrieved 2019/09/18 00:42 UTC (1 day ago):

TAF KGRR 182340Z 1900/1924 14005KT P6SM SKC